createdAt,value
2022-09-23T00:01:19.510Z,21.67
2022-09-23T00:03:49.025Z,20.83
2022-09-23T00:06:22.651Z,20.65
2022-09-23T00:08:51.876Z,22.45
2022-09-23T00:11:23.450Z,21.48
2022-09-23T00:13:58.115Z,19.70
2022-09-23T00:16:34.947Z,22.02
2022-09-23T00:19:03.939Z,21.45
2022-09-23T00:21:31.173Z,22.85
2022-09-23T00:23:58.299Z,21.42
2022-09-23T00:26:25.257Z,23.05
2022-09-23T00:28:52.560Z,21.63
2022-09-23T00:31:26.001Z,17.80
2022-09-23T00:34:01.472Z,18.10
2022-09-23T00:36:29.673Z,17.95
2022-09-23T00:38:56.686Z,19.10
2022-09-23T00:41:24.446Z,17.50
2022-09-23T00:43:54.029Z,16.65
2022-09-23T00:46:39.866Z,16.25
2022-09-23T00:49:26.727Z,16.55
2022-09-23T00:52:03.103Z,17.02
2022-09-23T00:54:31.036Z,17.58
2022-09-23T00:57:00.656Z,13.18
2022-09-23T00:59:29.116Z,14.32
2022-09-23T01:02:01.433Z,14.25
2022-09-23T01:04:30.028Z,14.55
2022-09-23T01:06:56.972Z,14.75
2022-09-23T01:09:25.323Z,13.13
2022-09-23T01:12:12.266Z,14.38
2022-09-23T01:15:09.000Z,15.93
2022-09-23T01:18:11.768Z,13.60
2022-09-23T01:21:03.142Z,14.52
2022-09-23T01:24:04.947Z,16.70
2022-09-23T01:27:10.381Z,15.65
2022-09-23T01:30:16.711Z,15.07
2022-09-23T01:33:20.132Z,18.58
2022-09-23T01:36:18.963Z,17.00
2022-09-23T01:39:17.331Z,20.33
2022-09-23T01:42:06.981Z,21.80
2022-09-23T01:44:47.214Z,17.40
2022-09-23T01:47:26.374Z,19.80
2022-09-23T01:50:02.586Z,18.85
2022-09-23T01:52:46.171Z,18.38
2022-09-23T01:55:19.022Z,18.30
2022-09-23T01:58:10.368Z,20.13
2022-09-23T02:00:49.700Z,19.85
2022-09-23T02:03:27.819Z,19.08
2022-09-23T02:06:04.208Z,21.42
2022-09-23T02:08:44.374Z,18.98
2022-09-23T02:11:15.348Z,21.63
2022-09-23T02:13:53.433Z,20.77
2022-09-23T02:16:35.723Z,21.80
2022-09-23T02:19:15.317Z,21.05
2022-09-23T02:21:52.442Z,21.50
2022-09-23T02:24:32.243Z,20.02
2022-09-23T02:27:44.891Z,20.92
2022-09-23T02:30:15.575Z,22.42
2022-09-23T02:33:20.361Z,23.08
2022-09-23T02:36:01.639Z,24.38
2022-09-23T02:38:46.451Z,22.55
2022-09-23T02:41:41.927Z,23.73
2022-09-23T02:44:16.759Z,21.63
2022-09-23T02:46:44.503Z,24.50
2022-09-23T02:49:19.054Z,21.85
2022-09-23T02:51:46.623Z,22.50
2022-09-23T02:54:19.338Z,22.42
2022-09-23T02:56:48.258Z,19.20
2022-09-23T02:59:20.760Z,29.88
2022-09-23T03:02:17.443Z,19.10
2022-09-23T03:05:07.321Z,17.45
2022-09-23T03:07:47.911Z,19.70
2022-09-23T03:11:13.950Z,19.25
2022-09-23T03:14:28.003Z,17.17
2022-09-23T03:19:57.087Z,17.80
2022-09-23T03:22:46.921Z,16.73
2022-09-23T03:25:20.202Z,18.98
2022-09-23T03:27:47.308Z,15.85
2022-09-23T03:30:15.164Z,22.58
2022-09-23T03:32:47.067Z,17.83
2022-09-23T03:35:14.958Z,18.75
2022-09-23T03:37:55.198Z,21.75
2022-09-23T03:40:35.549Z,16.65
2022-09-23T03:43:05.084Z,19.40
2022-09-23T03:45:34.570Z,17.88
2022-09-23T03:48:02.172Z,20.13
2022-09-23T03:50:29.542Z,17.75
2022-09-23T03:52:56.480Z,19.52
2022-09-23T03:55:23.490Z,18.20
2022-09-23T03:57:50.415Z,17.27
2022-09-23T04:00:17.487Z,18.40
2022-09-23T04:02:44.821Z,19.58
2022-09-23T04:05:13.376Z,18.63
2022-09-23T04:07:40.318Z,18.50
2022-09-23T04:10:08.057Z,20.15
2022-09-23T04:12:34.948Z,20.77
2022-09-23T04:15:01.909Z,22.05
2022-09-23T04:17:28.934Z,27.50
2022-09-23T04:19:55.950Z,19.50
2022-09-23T04:22:22.835Z,22.17
2022-09-23T04:24:49.935Z,21.02
2022-09-23T04:27:16.894Z,21.33
2022-09-23T04:29:43.783Z,19.15
2022-09-23T04:32:11.298Z,24.08
2022-09-23T04:34:38.179Z,19.20
2022-09-23T04:37:05.146Z,17.85
2022-09-23T04:39:32.107Z,22.45
2022-09-23T04:42:01.936Z,17.95
2022-09-23T04:44:29.579Z,22.67
2022-09-23T04:46:56.554Z,19.85
2022-09-23T04:49:23.612Z,20.15
2022-09-23T04:51:50.503Z,19.92
2022-09-23T04:54:17.436Z,17.10
2022-09-23T04:56:44.374Z,19.52
2022-09-23T04:59:11.395Z,19.73
2022-09-23T05:01:38.685Z,21.40
2022-09-23T05:04:11.030Z,21.88
2022-09-23T05:06:38.277Z,21.07
2022-09-23T05:09:08.169Z,20.92
2022-09-23T05:11:35.563Z,21.85
2022-09-23T05:14:02.780Z,17.23
2022-09-23T05:16:29.860Z,16.83
2022-09-23T05:18:57.550Z,18.58
2022-09-23T05:21:29.054Z,20.55
2022-09-23T05:23:59.080Z,22.45
2022-09-23T05:26:30.158Z,30.70
2022-09-23T05:28:58.403Z,30.08
2022-09-23T05:31:31.861Z,39.97
2022-09-23T05:34:02.540Z,71.70
2022-09-23T05:36:37.520Z,39.33
2022-09-23T05:39:06.902Z,39.42
2022-09-23T05:41:34.011Z,26.88
2022-09-23T05:44:01.410Z,25.52
2022-09-23T05:46:30.786Z,24.92
2022-09-23T05:49:02.496Z,19.35
2022-09-23T05:51:31.652Z,21.17
2022-09-23T05:54:02.850Z,21.88
2022-09-23T05:56:31.824Z,21.15
2022-09-23T05:59:02.070Z,17.25
2022-09-23T06:01:33.973Z,18.80
2022-09-23T06:04:05.041Z,13.53
2022-09-23T06:06:37.538Z,12.48
2022-09-23T06:09:06.690Z,14.90
2022-09-23T06:11:35.566Z,12.95
2022-09-23T06:14:03.755Z,14.20
2022-09-23T06:16:34.719Z,14.63
2022-09-23T06:19:06.300Z,15.77
2022-09-23T06:21:37.860Z,14.90
2022-09-23T06:24:07.021Z,12.07
2022-09-23T06:26:37.516Z,13.18
2022-09-23T06:29:11.913Z,11.55
2022-09-23T06:31:43.603Z,10.65
2022-09-23T06:34:14.861Z,11.65
2022-09-23T06:36:47.854Z,10.57
2022-09-23T06:39:15.719Z,10.95
2022-09-23T06:41:44.329Z,10.23
2022-09-23T06:44:11.311Z,9.50
2022-09-23T06:46:38.456Z,9.77
2022-09-23T06:49:05.822Z,8.55
2022-09-23T06:51:33.498Z,10.73
2022-09-23T06:54:00.761Z,10.68
2022-09-23T06:56:28.026Z,11.07
2022-09-23T06:58:55.027Z,10.80
2022-09-23T07:01:23.365Z,12.00
2022-09-23T07:03:55.254Z,11.27
2022-09-23T07:06:25.702Z,9.23
2022-09-23T07:08:53.757Z,7.57
2022-09-23T07:11:25.429Z,8.80
2022-09-23T07:14:22.404Z,7.75
2022-09-23T07:17:06.275Z,7.80
2022-09-23T07:19:37.898Z,7.75
2022-09-23T07:22:06.169Z,6.97
2022-09-23T07:24:34.233Z,5.53
2022-09-23T07:27:02.284Z,5.78
2022-09-23T07:29:39.578Z,9.10
2022-09-23T07:32:14.475Z,7.70
2022-09-23T07:34:48.164Z,6.68
2022-09-23T07:37:17.230Z,6.93
2022-09-23T07:39:45.579Z,39.28
2022-09-23T07:42:14.906Z,7.55
2022-09-23T07:44:45.246Z,5.57
2022-09-23T07:47:32.363Z,5.70
2022-09-23T07:49:59.313Z,6.22
2022-09-23T07:52:40.078Z,6.03
2022-09-23T07:55:34.060Z,5.93
2022-09-23T07:58:04.636Z,4.55
2022-09-23T08:00:56.914Z,7.13
2022-09-23T08:03:37.091Z,6.07
2022-09-23T08:06:13.196Z,4.68
2022-09-23T08:08:45.191Z,5.47
2022-09-23T08:11:14.692Z,6.00
2022-09-23T08:13:42.437Z,4.88
2022-09-23T08:16:10.711Z,4.85
2022-09-23T08:18:38.198Z,4.18
2022-09-23T08:21:05.344Z,4.53
2022-09-23T08:23:33.890Z,5.55
2022-09-23T08:26:22.238Z,3.78
2022-09-23T08:29:00.106Z,7.88
2022-09-23T08:31:27.526Z,2.90
2022-09-23T08:33:58.903Z,3.72
2022-09-23T08:36:26.835Z,4.10
2022-09-23T08:38:55.247Z,4.68
2022-09-23T08:41:58.463Z,4.50
2022-09-23T08:44:37.598Z,4.78
2022-09-23T08:47:41.270Z,5.57
2022-09-23T08:50:27.579Z,3.55
2022-09-23T08:53:01.934Z,5.47
2022-09-23T08:55:47.999Z,5.47
2022-09-23T08:58:35.140Z,6.35
2022-09-23T09:01:26.336Z,7.10
2022-09-23T09:04:24.010Z,7.28
2022-09-23T09:07:36.239Z,4.22
2022-09-23T09:10:45.687Z,6.22
2022-09-23T09:13:46.683Z,5.28
2022-09-23T09:16:58.875Z,17.88
2022-09-23T09:19:55.276Z,3.95
2022-09-23T09:22:54.638Z,0.70
2022-09-23T09:25:44.730Z,2.17
2022-09-23T09:28:47.601Z,2.67
2022-09-23T09:31:34.669Z,1.20
2022-09-23T09:34:32.602Z,2.10
2022-09-23T09:37:08.934Z,3.38
2022-09-23T09:39:46.807Z,2.30
2022-09-23T09:42:31.807Z,3.67
2022-09-23T09:45:27.585Z,5.25
2022-09-23T09:48:25.826Z,3.08
2022-09-23T09:51:19.805Z,5.18
2022-09-23T09:53:55.771Z,3.97
2022-09-23T09:56:37.821Z,3.15
2022-09-23T09:59:34.719Z,3.13
2022-09-23T10:02:43.560Z,3.47
2022-09-23T10:05:29.474Z,3.33
2022-09-23T10:07:56.419Z,3.25
2022-09-23T10:10:32.807Z,5.20
2022-09-23T10:13:20.746Z,3.03
2022-09-23T10:15:48.118Z,2.33
2022-09-23T10:18:39.063Z,2.17
2022-09-23T10:21:14.271Z,4.45
2022-09-23T10:23:48.676Z,3.10
2022-09-23T10:26:18.917Z,3.97
2022-09-23T10:28:55.524Z,3.63
2022-09-23T10:31:36.073Z,1.20
2022-09-23T10:34:27.841Z,1.52
2022-09-23T10:37:24.509Z,1.70
2022-09-23T10:40:10.087Z,3.78
2022-09-23T10:43:22.805Z,4.15
2022-09-23T10:46:08.893Z,1.67
2022-09-23T10:49:00.687Z,2.83
2022-09-23T10:51:34.286Z,3.38
2022-09-23T10:54:28.063Z,4.43
2022-09-23T10:57:26.505Z,3.75
2022-09-23T11:00:24.804Z,4.53
2022-09-23T11:03:22.627Z,3.42
2022-09-23T11:06:33.779Z,6.07
2022-09-23T11:09:26.361Z,5.50
2022-09-23T11:12:22.325Z,3.85
2022-09-23T11:15:24.776Z,2.45
2022-09-23T11:18:10.607Z,3.17
2022-09-23T11:21:12.945Z,5.60
2022-09-23T11:24:17.856Z,5.13
2022-09-23T11:27:18.132Z,3.08
2022-09-23T11:30:24.287Z,3.45
2022-09-23T11:33:13.920Z,3.92
2022-09-23T11:36:04.783Z,4.18
2022-09-23T11:38:51.409Z,5.07
2022-09-23T11:41:45.511Z,3.20
2022-09-23T11:44:28.185Z,2.53
2022-09-23T11:47:11.014Z,2.35
2022-09-23T11:50:06.625Z,2.53
2022-09-23T11:52:44.782Z,3.70
2022-09-23T11:55:34.794Z,2.55
2022-09-23T11:58:25.796Z,3.55
2022-09-23T12:01:03.216Z,2.60
2022-09-23T12:04:00.250Z,1.73
2022-09-23T12:07:00.420Z,3.10
2022-09-23T12:09:58.483Z,4.13
2022-09-23T12:13:19.262Z,1.90
2022-09-23T12:16:36.133Z,2.17
2022-09-23T12:19:19.774Z,5.00
2022-09-23T12:22:14.778Z,3.40
2022-09-23T12:25:13.993Z,1.88
2022-09-23T12:27:45.722Z,8.60
2022-09-23T12:30:32.190Z,1.23
2022-09-23T12:33:14.941Z,5.03
2022-09-23T12:35:46.251Z,2.38
2022-09-23T12:38:33.094Z,1.88
2022-09-23T12:41:00.882Z,2.58
2022-09-23T12:44:02.637Z,1.98
2022-09-23T12:46:37.832Z,25.83
2022-09-23T12:49:34.809Z,8.32
2022-09-23T12:52:11.792Z,4.80
2022-09-23T12:54:56.405Z,6.63
2022-09-23T12:57:35.536Z,11.70
2022-09-23T13:00:11.274Z,6.03
2022-09-23T13:03:20.696Z,6.05
2022-09-23T13:06:19.180Z,8.70
2022-09-23T13:08:50.488Z,3.15
2022-09-23T13:11:27.395Z,18.58
2022-09-23T13:13:59.932Z,13.43
2022-09-23T13:16:38.118Z,3.75
2022-09-23T13:19:27.118Z,2.53
2022-09-23T13:21:56.102Z,5.15
2022-09-23T13:24:29.070Z,1.58
2022-09-23T13:27:19.127Z,3.75
2022-09-23T13:30:19.318Z,3.95
2022-09-23T13:33:06.050Z,12.02
2022-09-23T13:35:45.998Z,5.90
2022-09-23T13:38:26.413Z,5.63
2022-09-23T13:41:09.837Z,5.38
2022-09-23T13:46:21.187Z,4.95
2022-09-23T13:48:54.687Z,4.07
2022-09-23T13:51:30.362Z,5.35
2022-09-23T13:54:00.814Z,4.07
2022-09-23T13:56:32.973Z,4.07
2022-09-23T13:59:27.431Z,2.80
2022-09-23T14:02:18.912Z,3.20
2022-09-23T14:04:47.896Z,2.85
2022-09-23T14:07:19.335Z,4.03
2022-09-23T14:09:59.525Z,11.93
2022-09-23T14:12:26.721Z,6.30
2022-09-23T14:14:55.021Z,7.20
2022-09-23T14:17:39.052Z,5.72
2022-09-23T14:20:17.741Z,6.63
2022-09-23T14:22:56.657Z,4.13
2022-09-23T14:25:27.748Z,7.20
2022-09-23T14:28:00.465Z,5.93
2022-09-23T14:30:32.638Z,5.82
2022-09-23T14:33:04.431Z,5.03
2022-09-23T14:35:47.933Z,4.38
2022-09-23T14:38:45.937Z,4.18
2022-09-23T14:41:24.445Z,4.10
2022-09-23T14:44:03.073Z,5.07
2022-09-23T14:46:36.997Z,4.72
2022-09-23T14:49:13.314Z,14.77
2022-09-23T14:51:57.132Z,21.23
2022-09-23T14:54:44.130Z,26.55
2022-09-23T14:57:27.384Z,17.27
2022-09-23T15:00:18.274Z,13.82
2022-09-23T15:03:00.329Z,10.57
2022-09-23T15:05:47.911Z,7.65
2022-09-23T15:08:27.449Z,4.97
2022-09-23T15:10:55.600Z,6.13
2022-09-23T15:13:32.815Z,8.18
2022-09-23T15:16:04.239Z,9.20
2022-09-23T15:18:45.114Z,8.63
2022-09-23T15:21:28.326Z,15.50
2022-09-23T15:24:10.721Z,9.07
2022-09-23T15:27:02.486Z,15.70
2022-09-23T15:29:54.913Z,11.63
2022-09-23T15:32:43.760Z,8.43
2022-09-23T15:35:38.147Z,7.75
2022-09-23T15:41:35.223Z,5.60
2022-09-23T15:44:48.676Z,8.65
2022-09-23T15:47:34.533Z,13.73
2022-09-23T15:50:01.462Z,13.45
2022-09-23T15:52:50.623Z,9.40
2022-09-23T15:55:36.696Z,13.90
2022-09-23T15:58:15.305Z,6.72
2022-09-23T16:01:01.943Z,7.28
2022-09-23T16:03:29.775Z,11.18
2022-09-23T16:06:02.499Z,16.27
2022-09-23T16:08:33.367Z,23.15
2022-09-23T16:11:12.614Z,23.52
2022-09-23T16:13:40.594Z,26.80
2022-09-23T16:16:08.245Z,24.80
2022-09-23T16:18:53.356Z,21.55
2022-09-23T16:21:27.961Z,68.90
2022-09-23T16:23:58.241Z,68.60
2022-09-23T16:26:35.781Z,53.58
2022-09-23T16:29:04.765Z,55.70
2022-09-23T16:31:34.845Z,36.90
2022-09-23T16:34:02.374Z,30.23
2022-09-23T16:36:42.923Z,29.48
2022-09-23T16:39:13.398Z,28.80
2022-09-23T16:41:44.141Z,29.70
2022-09-23T16:44:15.975Z,31.88
2022-09-23T16:46:51.689Z,35.90
2022-09-23T16:49:24.862Z,30.17
2022-09-23T16:54:22.956Z,21.73
2022-09-23T16:56:50.696Z,32.08
2022-09-23T16:59:21.709Z,54.03
2022-09-23T17:02:09.482Z,58.17
2022-09-23T17:04:42.135Z,50.63
2022-09-23T17:07:10.556Z,51.45
2022-09-23T17:09:46.538Z,44.50
2022-09-23T17:12:35.536Z,32.90
2022-09-23T17:15:14.527Z,44.28
2022-09-23T17:17:44.667Z,60.28
2022-09-23T17:20:20.990Z,54.15
2022-09-23T17:22:48.580Z,54.75
2022-09-23T17:25:19.400Z,72.22
2022-09-23T17:27:56.316Z,74.07
2022-09-23T17:30:29.381Z,58.22
2022-09-23T17:35:31.529Z,46.50
2022-09-23T17:38:04.864Z,22.58
2022-09-23T17:40:39.085Z,18.83
2022-09-23T17:43:08.188Z,18.98
2022-09-23T17:45:38.906Z,19.42
2022-09-23T17:48:07.249Z,19.17
2022-09-23T17:50:34.799Z,16.05
2022-09-23T17:53:04.823Z,14.00
2022-09-23T17:55:34.686Z,11.73
2022-09-23T17:58:18.469Z,16.63
2022-09-23T18:00:47.395Z,25.52
2022-09-23T18:03:15.304Z,21.52
2022-09-23T18:05:43.763Z,27.05
2022-09-23T18:08:11.199Z,19.73
2022-09-23T18:10:39.542Z,20.90
2022-09-23T18:13:07.561Z,24.15
2022-09-23T18:15:39.886Z,24.65
2022-09-23T18:18:07.750Z,47.00
2022-09-23T18:20:35.093Z,60.28
2022-09-23T18:23:02.362Z,49.10
2022-09-23T18:25:39.279Z,42.30
2022-09-23T18:28:08.397Z,31.38
2022-09-23T18:30:35.771Z,31.58
2022-09-23T18:33:03.547Z,32.40
2022-09-23T18:35:30.976Z,26.92
2022-09-23T18:38:01.490Z,29.80
2022-09-23T18:40:28.975Z,37.72
2022-09-23T18:42:56.369Z,35.63
2022-09-23T18:45:23.826Z,27.45
2022-09-23T18:48:09.524Z,26.25
2022-09-23T18:50:40.634Z,21.33
2022-09-23T18:53:08.861Z,21.80
2022-09-23T18:55:42.300Z,18.60
2022-09-23T18:58:12.006Z,15.73
2022-09-23T19:00:43.402Z,18.88
2022-09-23T19:03:11.511Z,20.35
2022-09-23T19:05:45.157Z,34.92
2022-09-23T19:08:13.785Z,29.80
2022-09-23T19:10:41.156Z,22.58
2022-09-23T19:13:08.843Z,20.35
2022-09-23T19:15:37.459Z,19.98
2022-09-23T19:18:05.353Z,20.80
2022-09-23T19:20:33.164Z,25.17
2022-09-23T19:23:00.476Z,23.45
2022-09-23T19:25:27.913Z,21.52
2022-09-23T19:27:55.133Z,25.23
2022-09-23T19:30:22.381Z,22.25
2022-09-23T19:32:49.751Z,24.67
2022-09-23T19:35:17.126Z,29.33
2022-09-23T19:37:49.425Z,32.05
2022-09-23T19:40:20.874Z,29.03
2022-09-23T19:42:48.371Z,24.67
2022-09-23T19:45:17.553Z,25.13
2022-09-23T19:47:44.972Z,20.05
2022-09-23T19:50:12.628Z,21.80
2022-09-23T19:52:40.408Z,27.60
2022-09-23T19:55:11.023Z,38.58
2022-09-23T19:57:38.711Z,48.75
2022-09-23T20:00:06.855Z,42.72
2022-09-23T20:02:35.430Z,42.35
2022-09-23T20:05:23.408Z,35.20
2022-09-23T20:07:52.866Z,38.53
2022-09-23T20:10:20.618Z,34.85
2022-09-23T20:12:52.474Z,24.73
2022-09-23T20:15:19.648Z,26.23
2022-09-23T20:17:48.213Z,27.38
2022-09-23T20:20:20.116Z,34.35
2022-09-23T20:22:49.087Z,37.17
2022-09-23T20:25:21.953Z,34.67
2022-09-23T20:27:52.978Z,36.35
2022-09-23T20:30:26.043Z,28.25
2022-09-23T20:35:34.434Z,26.95
2022-09-23T20:38:07.831Z,26.10
2022-09-23T20:40:39.257Z,20.60
2022-09-23T20:43:11.574Z,20.40
2022-09-23T20:45:38.761Z,24.17
2022-09-23T20:48:11.527Z,30.38
2022-09-23T20:50:38.971Z,37.10
2022-09-23T20:53:09.133Z,39.63
2022-09-23T20:55:36.570Z,48.38
2022-09-23T20:58:04.657Z,45.00
2022-09-23T21:00:31.868Z,49.15
2022-09-23T21:02:58.879Z,40.78
2022-09-23T21:05:25.964Z,30.55
2022-09-23T21:07:53.213Z,24.48
2022-09-23T21:10:22.821Z,22.60
2022-09-23T21:12:50.506Z,20.63
2022-09-23T21:15:18.273Z,17.73
2022-09-23T21:17:45.281Z,20.30
2022-09-23T21:20:12.355Z,19.58
2022-09-23T21:22:39.234Z,20.83
2022-09-23T21:27:54.183Z,20.40
2022-09-23T21:30:21.505Z,20.25
2022-09-23T21:32:48.549Z,18.02
2022-09-23T21:35:18.894Z,20.52
2022-09-23T21:37:46.124Z,20.05
2022-09-23T21:40:31.940Z,21.33
2022-09-23T21:43:00.451Z,22.20
2022-09-23T21:45:28.015Z,19.27
2022-09-23T21:47:55.076Z,18.15
2022-09-23T21:50:22.058Z,17.75
2022-09-23T21:52:51.850Z,16.08
2022-09-23T21:55:19.114Z,17.00
2022-09-23T21:57:46.208Z,17.60
2022-09-23T22:13:39.325Z,17.85
2022-09-23T22:16:06.505Z,20.90
2022-09-23T22:18:33.475Z,18.05
2022-09-23T22:21:00.523Z,17.65
2022-09-23T22:23:27.520Z,17.35
2022-09-23T22:26:03.056Z,18.58
2022-09-23T22:28:51.305Z,23.02
2022-09-23T22:31:36.795Z,21.33
2022-09-23T22:34:03.891Z,24.35
2022-09-23T22:36:33.747Z,21.45
2022-09-23T22:39:03.548Z,22.27
2022-09-23T22:41:31.518Z,25.08
2022-09-23T22:44:03.647Z,23.17
2022-09-23T22:46:34.629Z,25.02
2022-09-23T22:49:02.603Z,23.33
2022-09-23T22:51:29.570Z,27.77
2022-09-23T22:53:56.626Z,28.45
2022-09-23T22:56:23.636Z,28.98
2022-09-23T22:58:50.540Z,29.05
2022-09-23T23:01:17.526Z,30.90
2022-09-23T23:03:45.841Z,33.55
2022-09-23T23:06:12.906Z,29.88
2022-09-23T23:08:40.603Z,30.85
2022-09-23T23:11:11.800Z,31.50
2022-09-23T23:13:41.906Z,31.52
2022-09-23T23:16:12.838Z,32.63
2022-09-23T23:18:43.301Z,33.05
2022-09-23T23:21:16.774Z,31.73
2022-09-23T23:23:46.865Z,31.60
2022-09-23T23:26:23.855Z,34.50
2022-09-23T23:28:53.415Z,34.45
2022-09-23T23:31:24.570Z,32.25
2022-09-23T23:33:51.732Z,28.20
2022-09-23T23:36:22.416Z,30.67
2022-09-23T23:38:51.668Z,33.90
2022-09-23T23:41:22.738Z,33.72
2022-09-23T23:43:56.771Z,29.20
2022-09-23T23:46:25.423Z,26.88
2022-09-23T23:48:54.630Z,25.50
2022-09-23T23:51:22.963Z,24.42
2022-09-23T23:53:49.970Z,30.60
2022-09-23T23:56:20.233Z,28.52
2022-09-23T23:58:47.244Z,29.73
